Time;durP1;ratioP1;P1;durP2;ratioP2;P2;SDS_P1;SDS_P2;PMS_P1;PMS_P2;Temp;Humidity;BMP_temperature;BMP_pressure;BME280_temperature;BME280_humidity;BME280_pressure;Samples;Min_cycle;Max_cycle;Signal;HPM_P1;HPM_P2
2023/09/06 00:01:22;;;;;;;4.57;3.20;;;19.30;99.90;;;;;;5006076;28;20054;-56
2023/09/06 00:03:47;;;;;;;4.57;3.00;;;19.40;99.90;;;;;;5006286;28;20524;-56
2023/09/06 00:06:13;;;;;;;4.68;2.85;;;19.30;99.90;;;;;;5005072;28;20058;-57
2023/09/06 00:08:38;;;;;;;7.43;3.42;;;19.20;99.90;;;;;;5018203;28;20381;-57
2023/09/06 00:11:05;;;;;;;4.40;3.03;;;19.00;99.90;;;;;;5006699;28;20404;-57
2023/09/06 00:13:34;;;;;;;6.22;2.95;;;18.90;99.90;;;;;;5015925;28;20045;-55
2023/09/06 00:16:02;;;;;;;5.68;3.38;;;18.80;99.90;;;;;;4994172;28;20294;-55
2023/09/06 00:18:27;;;;;;;4.80;3.00;;;18.80;99.90;;;;;;5001372;28;20033;-55
2023/09/06 00:20:53;;;;;;;5.88;2.97;;;18.80;99.90;;;;;;5006524;28;20044;-56
2023/09/06 00:23:20;;;;;;;5.43;3.40;;;18.70;99.90;;;;;;5015517;28;20030;-55
2023/09/06 00:25:46;;;;;;;7.35;3.30;;;18.60;99.90;;;;;;5008216;28;20045;-54
2023/09/06 00:28:15;;;;;;;5.57;3.60;;;18.60;99.90;;;;;;5007314;28;20052;-56
2023/09/06 00:30:44;;;;;;;5.65;3.70;;;18.60;99.90;;;;;;5017592;28;20133;-56
2023/09/06 00:33:09;;;;;;;6.70;3.33;;;18.50;99.90;;;;;;5009601;28;20358;-55
2023/09/06 00:35:36;;;;;;;6.50;3.33;;;18.70;99.90;;;;;;5003378;28;20029;-56
2023/09/06 00:38:05;;;;;;;6.65;3.50;;;18.60;99.90;;;;;;5008261;28;20034;-56
2023/09/06 00:40:35;;;;;;;8.77;3.95;;;18.50;99.90;;;;;;5014843;28;20143;-55
2023/09/06 00:43:03;;;;;;;5.80;3.30;;;18.50;99.90;;;;;;5005143;28;20045;-56
2023/09/06 00:45:36;;;;;;;5.18;3.33;;;18.30;99.90;;;;;;5003148;28;20418;-56
2023/09/06 00:48:04;;;;;;;5.63;3.65;;;18.30;99.90;;;;;;5011525;28;20124;-55
2023/09/06 00:50:29;;;;;;;6.75;3.22;;;18.20;99.90;;;;;;5002623;28;20042;-56
2023/09/06 00:52:56;;;;;;;8.80;3.40;;;18.20;99.90;;;;;;5003222;28;20053;-56
2023/09/06 00:55:22;;;;;;;6.97;3.80;;;18.20;99.90;;;;;;5006017;28;20042;-55
2023/09/06 00:57:48;;;;;;;6.40;4.05;;;18.20;99.90;;;;;;5006711;28;20203;-55
2023/09/06 01:00:17;;;;;;;7.13;3.50;;;18.10;99.90;;;;;;5014221;28;20369;-55
2023/09/06 01:02:44;;;;;;;7.35;3.78;;;18.00;99.90;;;;;;5009922;28;20049;-54
2023/09/06 01:05:10;;;;;;;7.05;3.97;;;18.10;99.90;;;;;;5022098;28;20030;-55
2023/09/06 01:07:38;;;;;;;6.28;3.35;;;17.90;99.90;;;;;;5008597;28;20029;-55
2023/09/06 01:10:04;;;;;;;5.07;3.50;;;17.80;99.90;;;;;;5013799;28;20038;-56
2023/09/06 01:12:30;;;;;;;6.80;3.65;;;17.90;99.90;;;;;;5017302;28;20126;-56
2023/09/06 01:14:55;;;;;;;6.03;3.97;;;17.90;99.90;;;;;;5009924;28;20474;-56
2023/09/06 01:17:24;;;;;;;7.50;3.90;;;18.00;99.90;;;;;;5010856;28;20047;-55
2023/09/06 01:19:54;;;;;;;7.22;3.72;;;18.00;99.90;;;;;;5005114;28;20056;-55
2023/09/06 01:22:38;;;;;;;7.97;3.75;;;17.90;99.90;;;;;;5004041;28;20045;-54
2023/09/06 01:25:04;;;;;;;6.20;3.97;;;17.70;99.90;;;;;;5006579;28;20037;-56
2023/09/06 01:27:30;;;;;;;5.97;3.70;;;17.80;99.90;;;;;;5014104;28;20612;-54
2023/09/06 01:29:57;;;;;;;5.85;3.45;;;18.00;99.90;;;;;;5006630;28;20121;-56
2023/09/06 01:32:22;;;;;;;10.10;4.07;;;18.00;99.90;;;;;;5011929;28;20030;-55
2023/09/06 01:34:48;;;;;;;6.22;3.83;;;17.70;99.90;;;;;;5012502;28;20538;-56
2023/09/06 01:37:13;;;;;;;5.65;3.88;;;17.70;99.90;;;;;;5006763;28;20026;-55
2023/09/06 01:39:39;;;;;;;7.97;4.20;;;17.80;99.90;;;;;;5011991;28;20064;-56
2023/09/06 01:42:04;;;;;;;6.53;3.70;;;17.70;99.90;;;;;;5016879;28;20062;-56
2023/09/06 01:44:31;;;;;;;6.28;3.63;;;17.60;99.90;;;;;;5012704;28;20026;-57
2023/09/06 01:46:57;;;;;;;10.20;4.00;;;17.10;99.90;;;;;;5016004;28;20029;-57
2023/09/06 01:49:23;;;;;;;5.28;3.55;;;17.50;99.90;;;;;;5017969;28;20037;-56
2023/09/06 01:51:49;;;;;;;8.45;3.80;;;17.60;99.90;;;;;;5022442;28;20032;-56
2023/09/06 01:54:14;;;;;;;6.88;3.70;;;17.60;99.90;;;;;;5017796;28;20033;-56
2023/09/06 01:56:41;;;;;;;5.18;3.50;;;17.60;99.90;;;;;;5016104;28;20045;-57
2023/09/06 01:59:07;;;;;;;6.32;3.90;;;17.50;99.90;;;;;;5014342;28;20057;-56
2023/09/06 02:01:33;;;;;;;6.70;3.58;;;17.30;99.90;;;;;;5017125;28;20022;-56
2023/09/06 02:03:59;;;;;;;4.65;3.40;;;17.40;99.90;;;;;;5011933;28;20121;-57
2023/09/06 02:06:25;;;;;;;7.55;3.90;;;17.50;99.90;;;;;;5010013;28;20034;-57
2023/09/06 02:08:51;;;;;;;7.10;3.80;;;17.50;99.90;;;;;;5031496;28;20471;-56
2023/09/06 02:11:17;;;;;;;6.43;3.60;;;17.40;99.90;;;;;;5024611;28;20342;-57
2023/09/06 02:13:42;;;;;;;5.53;3.58;;;17.40;99.90;;;;;;5025341;28;20033;-57
2023/09/06 02:16:08;;;;;;;8.10;3.90;;;17.40;99.90;;;;;;5028767;28;20059;-57
2023/09/06 02:18:33;;;;;;;7.53;4.18;;;17.40;99.90;;;;;;5025804;28;20068;-57
2023/09/06 02:20:59;;;;;;;6.70;3.67;;;17.40;99.90;;;;;;5022023;28;20045;-55
2023/09/06 02:23:24;;;;;;;7.75;3.85;;;17.40;99.90;;;;;;5014014;28;20044;-55
2023/09/06 02:25:50;;;;;;;8.40;3.65;;;17.40;99.90;;;;;;5008522;28;20129;-57
2023/09/06 02:28:17;;;;;;;8.52;4.00;;;17.30;99.90;;;;;;5013204;28;20041;-56
2023/09/06 02:30:43;;;;;;;7.20;3.65;;;17.20;99.90;;;;;;5011024;28;20141;-56
2023/09/06 02:33:11;;;;;;;7.28;4.15;;;17.20;99.90;;;;;;5009101;28;20092;-56
2023/09/06 02:35:40;;;;;;;8.35;3.90;;;17.30;99.90;;;;;;5005013;28;20057;-57
2023/09/06 02:38:13;;;;;;;8.10;3.90;;;17.20;99.90;;;;;;5004666;28;20053;-56
2023/09/06 02:40:41;;;;;;;6.97;3.92;;;17.20;99.90;;;;;;5012639;28;20106;-55
2023/09/06 02:43:07;;;;;;;6.47;3.90;;;17.10;99.90;;;;;;5007579;28;20034;-56
2023/09/06 02:45:36;;;;;;;6.82;3.67;;;17.10;99.90;;;;;;5007596;28;20048;-56
2023/09/06 02:48:06;;;;;;;12.95;4.60;;;16.60;99.90;;;;;;5017344;28;20136;-55
2023/09/06 02:50:34;;;;;;;10.02;4.68;;;16.40;99.90;;;;;;5010024;28;20040;-56
2023/09/06 02:53:01;;;;;;;7.88;4.57;;;17.10;99.90;;;;;;5010434;28;20050;-56
2023/09/06 02:55:27;;;;;;;6.78;4.30;;;16.70;99.90;;;;;;5007863;28;20042;-56
2023/09/06 02:57:54;;;;;;;7.63;4.32;;;17.10;99.90;;;;;;5005634;28;20041;-56
2023/09/06 03:00:24;;;;;;;8.55;4.75;;;17.00;99.90;;;;;;5004161;28;20446;-57
2023/09/06 03:02:52;;;;;;;9.60;4.80;;;17.00;99.90;;;;;;5021463;28;20025;-56
2023/09/06 03:05:18;;;;;;;11.75;4.70;;;16.80;99.90;;;;;;5025633;28;20547;-56
2023/09/06 03:07:46;;;;;;;8.75;4.70;;;16.50;99.90;;;;;;5027694;28;20080;-56
2023/09/06 03:10:11;;;;;;;9.27;4.97;;;16.50;99.90;;;;;;5034086;28;20805;-56
2023/09/06 03:12:41;;;;;;;7.75;4.70;;;16.60;99.90;;;;;;5027816;28;20031;-57
2023/09/06 03:15:08;;;;;;;7.57;4.93;;;16.60;99.90;;;;;;5026736;28;20411;-56
2023/09/06 03:17:36;;;;;;;9.40;4.90;;;16.60;99.90;;;;;;5029841;28;20034;-56
2023/09/06 03:20:18;;;;;;;7.85;4.72;;;16.70;99.90;;;;;;5024134;28;20048;-54
2023/09/06 03:22:48;;;;;;;9.27;5.07;;;16.40;99.90;;;;;;5025201;28;20519;-56
2023/09/06 03:25:17;;;;;;;9.73;4.82;;;16.40;99.90;;;;;;5024300;28;20120;-55
2023/09/06 03:27:42;;;;;;;8.23;4.93;;;16.40;99.90;;;;;;5024771;28;20040;-56
2023/09/06 03:30:09;;;;;;;6.78;4.50;;;16.30;99.90;;;;;;5024552;28;20045;-57
2023/09/06 03:32:35;;;;;;;7.70;4.80;;;16.40;99.90;;;;;;5027858;28;20060;-57
2023/09/06 03:35:04;;;;;;;6.70;4.45;;;16.40;99.90;;;;;;5041498;28;20029;-56
2023/09/06 03:37:30;;;;;;;10.85;4.78;;;16.40;99.90;;;;;;5025606;28;20465;-57
2023/09/06 03:39:56;;;;;;;8.93;5.18;;;16.40;99.90;;;;;;5029724;28;20477;-57
2023/09/06 03:42:23;;;;;;;8.65;4.85;;;16.40;99.90;;;;;;5026109;28;20102;-55
2023/09/06 03:44:49;;;;;;;8.38;4.45;;;16.50;99.90;;;;;;5024571;28;20030;-57
2023/09/06 03:47:16;;;;;;;8.07;4.72;;;16.50;99.90;;;;;;5025043;28;20047;-56
2023/09/06 03:49:43;;;;;;;8.93;5.20;;;16.50;99.90;;;;;;5028350;28;20501;-57
2023/09/06 03:52:10;;;;;;;9.43;4.90;;;16.60;99.90;;;;;;5023197;28;20034;-58
2023/09/06 03:54:37;;;;;;;8.50;4.90;;;16.60;99.90;;;;;;5017292;28;20517;-56
2023/09/06 03:57:12;;;;;;;13.50;5.05;;;16.60;99.90;;;;;;5026888;28;20550;-55
2023/09/06 03:59:40;;;;;;;9.45;5.00;;;16.70;99.90;;;;;;5027806;28;20091;-56
2023/09/06 04:02:09;;;;;;;10.73;5.20;;;16.70;99.90;;;;;;5023370;28;20045;-55
2023/09/06 04:04:35;;;;;;;8.55;4.85;;;16.60;99.90;;;;;;5024290;28;20029;-57
2023/09/06 04:07:01;;;;;;;8.88;4.90;;;16.70;99.90;;;;;;5012157;28;20450;-56
2023/09/06 04:09:37;;;;;;;12.18;5.10;;;16.70;99.90;;;;;;5011939;28;20053;-56
2023/09/06 04:12:03;;;;;;;8.80;4.43;;;16.70;99.90;;;;;;5011953;28;20624;-56
2023/09/06 04:14:29;;;;;;;9.10;4.40;;;16.70;99.90;;;;;;5011264;28;20029;-57
2023/09/06 04:16:55;;;;;;;10.15;4.80;;;16.70;99.90;;;;;;5013046;28;20283;-55
2023/09/06 04:19:21;;;;;;;9.73;4.80;;;16.70;99.90;;;;;;5011302;28;20041;-57
2023/09/06 04:21:47;;;;;;;7.80;4.43;;;16.80;99.90;;;;;;5018359;28;20057;-57
2023/09/06 04:24:13;;;;;;;9.35;4.93;;;16.80;99.90;;;;;;5010186;28;20112;-55
2023/09/06 04:26:39;;;;;;;10.98;4.60;;;16.80;99.90;;;;;;5004954;28;20038;-56
2023/09/06 04:29:05;;;;;;;11.60;4.85;;;16.90;99.90;;;;;;5004031;28;20033;-56
2023/09/06 04:31:30;;;;;;;12.45;4.82;;;16.90;99.90;;;;;;5006593;28;20221;-56
2023/09/06 04:34:02;;;;;;;8.88;4.93;;;16.80;99.90;;;;;;5008878;28;20034;-57
2023/09/06 04:36:27;;;;;;;10.10;4.97;;;16.90;99.90;;;;;;5006107;28;20025;-55
2023/09/06 04:38:53;;;;;;;14.82;5.35;;;16.70;99.90;;;;;;5000862;28;20046;-57
2023/09/06 04:41:20;;;;;;;10.27;4.57;;;16.70;99.90;;;;;;5002893;28;20105;-57
2023/09/06 04:43:45;;;;;;;13.13;5.13;;;16.90;99.90;;;;;;5010726;28;20026;-57
2023/09/06 04:46:11;;;;;;;10.98;4.65;;;16.70;99.90;;;;;;5002313;28;20437;-57
2023/09/06 04:48:36;;;;;;;9.43;5.20;;;16.60;99.90;;;;;;5003424;28;20030;-55
2023/09/06 04:51:02;;;;;;;7.60;4.82;;;16.50;99.90;;;;;;5004058;28;20167;-56
2023/09/06 04:53:28;;;;;;;12.40;4.93;;;16.50;99.90;;;;;;5003335;28;20041;-57
2023/09/06 04:55:54;;;;;;;10.05;4.82;;;16.30;99.90;;;;;;5006473;28;20117;-57
2023/09/06 04:58:20;;;;;;;11.23;4.85;;;16.40;99.90;;;;;;5007514;28;20034;-57
2023/09/06 05:00:50;;;;;;;8.70;4.57;;;16.40;99.90;;;;;;5006661;28;20461;-57
2023/09/06 05:03:19;;;;;;;11.85;4.90;;;16.40;99.90;;;;;;5009447;28;20444;-56
2023/09/06 05:05:47;;;;;;;10.15;4.70;;;16.30;99.90;;;;;;5016292;28;20445;-55
2023/09/06 05:08:12;;;;;;;9.52;5.03;;;16.20;99.90;;;;;;4999184;28;20418;-55
2023/09/06 05:10:41;;;;;;;12.38;5.28;;;16.20;99.90;;;;;;5012580;28;20063;-56
2023/09/06 05:13:11;;;;;;;8.80;5.05;;;16.10;99.90;;;;;;5021986;28;20041;-56
2023/09/06 05:15:38;;;;;;;9.15;5.18;;;16.10;99.90;;;;;;5032833;28;20061;-57
2023/09/06 05:18:04;;;;;;;11.48;4.97;;;16.10;99.90;;;;;;5014433;28;20046;-57
2023/09/06 05:20:35;;;;;;;12.07;4.88;;;16.10;99.90;;;;;;5010302;28;20064;-56
2023/09/06 05:23:03;;;;;;;14.07;5.55;;;16.10;99.90;;;;;;5008423;28;20097;-56
2023/09/06 05:25:30;;;;;;;9.07;5.25;;;16.10;99.90;;;;;;5006200;28;20858;-56
2023/09/06 05:28:01;;;;;;;12.15;4.80;;;16.00;99.90;;;;;;5012368;28;20076;-58
2023/09/06 05:30:27;;;;;;;26.70;16.98;;;16.00;99.90;;;;;;5008326;28;20029;-57
2023/09/06 05:32:56;;;;;;;44.65;28.92;;;16.10;99.90;;;;;;5009920;28;20034;-56
2023/09/06 05:35:22;;;;;;;27.38;16.55;;;16.10;99.90;;;;;;5006032;28;20049;-57
2023/09/06 05:37:48;;;;;;;21.27;13.88;;;16.10;99.90;;;;;;5008130;28;20045;-55
2023/09/06 05:40:15;;;;;;;12.55;6.85;;;16.00;99.90;;;;;;5007220;28;20030;-56
2023/09/06 05:42:41;;;;;;;14.43;6.90;;;16.00;99.90;;;;;;5011349;28;20179;-56
2023/09/06 05:45:10;;;;;;;13.20;6.40;;;16.10;99.90;;;;;;5026270;28;20123;-56
2023/09/06 05:47:36;;;;;;;10.40;5.50;;;16.10;99.90;;;;;;5030495;28;20033;-57
2023/09/06 05:50:02;;;;;;;10.70;5.72;;;16.10;99.90;;;;;;5032245;28;20041;-55
2023/09/06 05:52:28;;;;;;;9.13;5.45;;;16.20;99.90;;;;;;5030664;28;20155;-57
2023/09/06 05:54:54;;;;;;;15.90;6.05;;;16.20;99.90;;;;;;5030322;28;20124;-58
2023/09/06 05:57:20;;;;;;;11.95;5.68;;;16.30;99.90;;;;;;5021772;28;20439;-57
2023/09/06 05:59:45;;;;;;;18.85;6.38;;;16.40;99.90;;;;;;5024514;28;20038;-55
2023/09/06 06:02:11;;;;;;;13.70;5.85;;;16.40;99.90;;;;;;5028103;28;20029;-57
2023/09/06 06:04:37;;;;;;;11.65;5.40;;;16.40;99.90;;;;;;5035604;28;20033;-57
2023/09/06 06:07:03;;;;;;;15.10;6.00;;;16.50;99.90;;;;;;5023738;28;20039;-56
2023/09/06 06:09:28;;;;;;;8.60;4.97;;;16.60;99.90;;;;;;5026300;28;20030;-56
2023/09/06 06:11:54;;;;;;;15.80;5.65;;;16.60;99.90;;;;;;5021183;28;20040;-57
2023/09/06 06:14:20;;;;;;;12.98;5.47;;;16.80;99.90;;;;;;5034466;28;20459;-56
2023/09/06 06:16:46;;;;;;;16.50;5.93;;;16.90;99.90;;;;;;5029228;28;20041;-55
2023/09/06 06:19:12;;;;;;;19.15;7.40;;;17.10;99.90;;;;;;5027361;28;20433;-55
2023/09/06 06:21:38;;;;;;;70.05;48.20;;;17.10;99.90;;;;;;5024412;28;20886;-56
2023/09/06 06:24:08;;;;;;;52.22;37.10;;;17.20;99.90;;;;;;5035660;28;20040;-56
2023/09/06 06:26:33;;;;;;;12.85;8.88;;;;;;;;;;5037365;28;20084;-55
2023/09/06 06:28:59;;;;;;;16.15;8.15;;;17.60;99.90;;;;;;5040282;28;20448;-55
2023/09/06 06:31:25;;;;;;;12.13;6.32;;;17.70;99.90;;;;;;5035444;28;20472;-54
2023/09/06 06:33:50;;;;;;;12.18;6.03;;;17.80;99.90;;;;;;5037024;28;20514;-56
2023/09/06 06:36:16;;;;;;;11.50;6.10;;;18.00;99.90;;;;;;5036306;28;20072;-55
2023/09/06 06:38:46;;;;;;;8.45;5.22;;;18.10;99.90;;;;;;5029809;28;20044;-56
2023/09/06 06:41:20;;;;;;;12.30;5.90;;;18.20;99.90;;;;;;5029991;28;20032;-55
2023/09/06 06:43:47;;;;;;;12.23;5.88;;;18.40;99.90;;;;;;5026948;28;20092;-55
2023/09/06 06:46:30;;;;;;;11.00;5.15;;;18.60;99.90;;;;;;5034669;28;20041;-56
2023/09/06 06:48:56;;;;;;;;;;;18.60;99.90;;;;;;5023658;28;20038;-55
2023/09/06 06:51:25;;;;;;;10.15;5.40;;;18.70;99.90;;;;;;5032126;28;19978;-56
2023/09/06 06:53:51;;;;;;;11.13;5.10;;;18.90;99.90;;;;;;5035346;28;20040;-55
2023/09/06 06:56:21;;;;;;;8.13;4.82;;;19.10;99.90;;;;;;5039840;28;20052;-55
2023/09/06 06:58:50;;;;;;;8.93;4.80;;;19.30;99.90;;;;;;5034635;28;20036;-55
2023/09/06 07:01:16;;;;;;;11.48;5.05;;;19.40;99.90;;;;;;5026648;28;20048;-56
2023/09/06 07:03:41;;;;;;;11.45;4.90;;;19.50;99.90;;;;;;5028624;28;20411;-55
2023/09/06 07:06:08;;;;;;;10.48;5.53;;;19.60;99.90;;;;;;5018684;28;20111;-57
2023/09/06 07:08:35;;;;;;;9.38;5.00;;;19.70;99.90;;;;;;5027965;28;20103;-57
2023/09/06 07:11:03;;;;;;;9.30;4.70;;;19.70;99.90;;;;;;5009897;28;20597;-57
2023/09/06 07:13:29;;;;;;;10.75;4.68;;;19.80;99.90;;;;;;5022053;28;20095;-55
2023/09/06 07:15:54;;;;;;;9.52;4.50;;;19.90;99.90;;;;;;5022719;28;20405;-55
2023/09/06 07:18:20;;;;;;;11.40;4.97;;;20.10;99.90;;;;;;5023547;28;20095;-54
2023/09/06 07:20:47;;;;;;;7.63;4.65;;;20.20;99.90;;;;;;5023683;28;20193;-56
2023/09/06 07:23:12;;;;;;;7.95;4.32;;;20.20;99.90;;;;;;5003000;28;20049;-56
2023/09/06 07:25:39;;;;;;;9.93;5.20;;;20.30;99.90;;;;;;5007399;28;20445;-57
2023/09/06 07:28:05;;;;;;;11.40;4.85;;;20.40;99.90;;;;;;5006943;28;20046;-57
2023/09/06 07:30:32;;;;;;;9.10;4.60;;;20.50;99.90;;;;;;5006967;28;20045;-55
2023/09/06 07:32:58;;;;;;;9.93;4.93;;;20.60;99.90;;;;;;5010896;28;20058;-57
2023/09/06 07:35:23;;;;;;;8.90;4.32;;;20.60;99.90;;;;;;5004393;28;20266;-55
2023/09/06 07:37:49;;;;;;;8.68;4.10;;;20.70;99.90;;;;;;5006675;28;20042;-57
2023/09/06 07:40:14;;;;;;;9.05;3.83;;;20.80;99.90;;;;;;5003735;28;20426;-56
2023/09/06 07:42:40;;;;;;;12.27;5.82;;;20.90;99.90;;;;;;5008190;28;20515;-57
2023/09/06 07:45:07;;;;;;;10.57;5.53;;;21.00;99.90;;;;;;5023365;28;20044;-56
2023/09/06 07:47:33;;;;;;;11.35;4.03;;;21.00;99.90;;;;;;5006053;28;20045;-55
2023/09/06 07:49:59;;;;;;;10.68;4.38;;;21.10;99.90;;;;;;5008846;28;20029;-56
2023/09/06 07:52:25;;;;;;;12.00;4.50;;;21.30;99.90;;;;;;4997312;28;20061;-55
2023/09/06 07:54:50;;;;;;;10.77;4.43;;;21.30;99.90;;;;;;5006154;28;20064;-56
2023/09/06 07:57:16;;;;;;;9.52;4.50;;;21.40;99.90;;;;;;5007825;28;20041;-56
2023/09/06 07:59:41;;;;;;;11.90;4.72;;;21.50;99.90;;;;;;5016629;28;20037;-56
2023/09/06 08:02:08;;;;;;;13.48;4.65;;;21.50;99.90;;;;;;5020144;28;20067;-55
2023/09/06 08:04:33;;;;;;;8.95;4.10;;;21.60;99.90;;;;;;5023073;28;20384;-55
2023/09/06 08:06:59;;;;;;;7.63;4.28;;;21.70;99.90;;;;;;5021594;28;20120;-55
2023/09/06 08:09:25;;;;;;;7.35;4.30;;;21.80;99.90;;;;;;5020745;28;20037;-56
2023/09/06 08:11:50;;;;;;;8.85;4.78;;;21.90;99.90;;;;;;5023230;28;20155;-55
2023/09/06 08:14:16;;;;;;;10.35;4.60;;;22.00;99.90;;;;;;5023187;28;20307;-56
2023/09/06 08:16:42;;;;;;;7.93;4.25;;;22.20;99.90;;;;;;5026836;28;20166;-55
2023/09/06 08:19:08;;;;;;;7.15;4.00;;;22.20;99.90;;;;;;5031393;28;20048;-56
2023/09/06 08:21:34;;;;;;;9.35;4.38;;;22.20;99.90;;;;;;5030052;28;20386;-56
2023/09/06 08:24:02;;;;;;;8.25;4.22;;;22.20;99.90;;;;;;5024504;28;20332;-55
2023/09/06 08:26:27;;;;;;;12.43;4.47;;;22.30;99.90;;;;;;5025604;28;20120;-57
2023/09/06 08:28:53;;;;;;;9.48;4.18;;;22.40;99.90;;;;;;5032249;28;20207;-56
2023/09/06 08:31:19;;;;;;;7.40;4.07;;;22.50;99.90;;;;;;5019925;28;20045;-56
2023/09/06 08:33:44;;;;;;;7.68;4.35;;;22.60;99.90;;;;;;5021966;28;20037;-55
2023/09/06 08:36:11;;;;;;;7.00;4.13;;;22.70;99.90;;;;;;5022258;28;20041;-56
2023/09/06 08:38:39;;;;;;;8.85;4.82;;;22.70;99.90;;;;;;5026009;28;20129;-56
2023/09/06 08:41:07;;;;;;;7.15;4.20;;;23.00;99.90;;;;;;5024128;28;20493;-55
2023/09/06 08:43:41;;;;;;;8.90;4.50;;;23.00;99.90;;;;;;5028912;28;20048;-56
2023/09/06 08:46:37;;;;;;;10.38;5.00;;;23.10;99.90;;;;;;5025554;28;20519;-56
2023/09/06 08:49:05;;;;;;;10.55;4.53;;;23.10;99.90;;;;;;5027117;28;20437;-56
2023/09/06 08:51:35;;;;;;;9.32;4.53;;;23.20;99.90;;;;;;5025343;28;20078;-56
2023/09/06 08:54:02;;;;;;;7.78;4.45;;;23.20;99.90;;;;;;5025704;28;20045;-56
2023/09/06 08:56:30;;;;;;;7.88;4.38;;;23.30;99.90;;;;;;5021193;28;20045;-55
2023/09/06 08:58:56;;;;;;;7.50;4.47;;;23.40;99.90;;;;;;5027108;28;20427;-56
2023/09/06 09:01:22;;;;;;;8.73;4.20;;;23.40;99.90;;;;;;5025971;28;20052;-55
2023/09/06 09:03:47;;;;;;;9.00;4.35;;;23.40;99.90;;;;;;5027902;28;20037;-56
2023/09/06 09:06:13;;;;;;;11.75;4.75;;;23.60;99.90;;;;;;5025727;28;20125;-57
2023/09/06 09:08:39;;;;;;;8.68;3.80;;;23.70;99.90;;;;;;5028202;28;20031;-57
2023/09/06 09:11:15;;;;;;;11.93;5.00;;;23.70;99.90;;;;;;5024619;28;20026;-56
2023/09/06 09:13:42;;;;;;;9.40;4.30;;;23.70;99.90;;;;;;5021271;28;20128;-56
2023/09/06 09:16:12;;;;;;;7.90;4.38;;;23.80;99.90;;;;;;5024907;28;20719;-57
2023/09/06 09:18:40;;;;;;;7.03;4.32;;;23.90;99.90;;;;;;5022850;28;20132;-56
2023/09/06 09:21:11;;;;;;;9.05;4.82;;;24.00;99.90;;;;;;5020166;28;20485;-57
2023/09/06 09:24:05;;;;;;;8.18;4.20;;;24.00;99.90;;;;;;5007572;28;20147;-56
2023/09/06 09:26:32;;;;;;;7.95;4.70;;;24.10;99.90;;;;;;4989922;28;20030;-57
2023/09/06 09:29:03;;;;;;;8.52;4.75;;;24.20;99.90;;;;;;5000959;28;20030;-56
2023/09/06 09:31:30;;;;;;;7.03;4.50;;;24.30;99.90;;;;;;5005258;28;20041;-56
2023/09/06 09:33:56;;;;;;;9.52;4.78;;;24.30;99.90;;;;;;5004441;28;20470;-56
2023/09/06 09:36:22;;;;;;;10.90;4.82;;;24.30;99.90;;;;;;5006141;28;20042;-57
2023/09/06 09:38:49;;;;;;;7.80;4.45;;;24.30;99.90;;;;;;5007731;28;20505;-56
2023/09/06 09:41:15;;;;;;;11.98;4.97;;;24.30;99.90;;;;;;5001700;28;20125;-56
2023/09/06 09:43:40;;;;;;;11.52;4.70;;;24.40;99.90;;;;;;5004356;28;20473;-57
2023/09/06 09:46:07;;;;;;;10.75;4.80;;;24.50;99.90;;;;;;5006924;28;20065;-56
2023/09/06 09:48:33;;;;;;;9.60;4.75;;;24.60;99.90;;;;;;5006459;28;20092;-55
2023/09/06 09:51:04;;;;;;;11.32;4.63;;;24.70;99.90;;;;;;5008612;28;20045;-57
2023/09/06 09:53:32;;;;;;;9.65;4.78;;;24.60;99.90;;;;;;5007450;28;20030;-56
2023/09/06 09:56:06;;;;;;;8.63;4.72;;;24.70;99.90;;;;;;5005864;28;20411;-56
2023/09/06 09:58:34;;;;;;;12.27;5.72;;;24.70;99.90;;;;;;5010131;28;20388;-56
2023/09/06 10:01:00;;;;;;;10.18;5.47;;;24.80;99.90;;;;;;5011123;28;20052;-56
2023/09/06 10:03:27;;;;;;;10.90;4.47;;;24.80;99.90;;;;;;5010252;28;20045;-57
2023/09/06 10:05:53;;;;;;;9.50;5.05;;;24.80;99.90;;;;;;5010567;28;20096;-57
2023/09/06 10:08:21;;;;;;;10.02;4.63;;;24.80;99.90;;;;;;5018074;28;20053;-57
2023/09/06 10:10:47;;;;;;;12.75;5.13;;;24.80;99.90;;;;;;5020950;28;20042;-56
2023/09/06 10:13:14;;;;;;;7.75;5.00;;;24.80;99.90;;;;;;5019179;28;20175;-55
2023/09/06 10:15:43;;;;;;;11.35;5.22;;;24.80;99.90;;;;;;5017977;28;20061;-57
2023/09/06 10:18:08;;;;;;;11.38;5.15;;;24.90;99.90;;;;;;5014828;28;20033;-56
2023/09/06 10:20:37;;;;;;;6.53;4.68;;;24.90;99.90;;;;;;5013470;28;20034;-57
2023/09/06 10:23:05;;;;;;;9.45;4.68;;;24.80;99.90;;;;;;5009945;28;20117;-56
2023/09/06 10:25:31;;;;;;;8.95;4.55;;;24.90;99.90;;;;;;5008646;28;20053;-56
2023/09/06 10:27:59;;;;;;;11.57;5.10;;;25.10;99.90;;;;;;5008104;28;20050;-56
2023/09/06 10:30:34;;;;;;;9.55;4.43;;;25.10;99.90;;;;;;5007563;28;20087;-56
2023/09/06 10:33:02;;;;;;;9.95;5.43;;;25.10;99.90;;;;;;4995265;28;20073;-56
2023/09/06 10:35:31;;;;;;;6.97;4.38;;;25.20;99.90;;;;;;5010938;28;20197;-56
2023/09/06 10:38:10;;;;;;;7.30;4.20;;;25.20;99.90;;;;;;5004931;28;20609;-57
2023/09/06 10:40:50;;;;;;;6.80;4.28;;;25.20;99.90;;;;;;5019502;28;20397;-56
2023/09/06 10:43:17;;;;;;;9.95;4.35;;;25.20;99.90;;;;;;5026807;28;20026;-56
2023/09/06 10:46:07;;;;;;;5.97;4.45;;;25.20;99.90;;;;;;5024562;28;20037;-57
2023/09/06 10:48:32;;;;;;;8.60;4.68;;;25.20;99.90;;;;;;5023937;28;20722;-55
2023/09/06 10:51:06;;;;;;;7.97;4.60;;;25.30;99.90;;;;;;5017521;28;20239;-57
2023/09/06 10:53:33;;;;;;;8.95;4.60;;;25.30;99.90;;;;;;5027041;28;20037;-56
2023/09/06 10:56:01;;;;;;;9.32;4.38;;;25.30;99.90;;;;;;5026716;28;20045;-57
2023/09/06 10:58:29;;;;;;;7.22;4.20;;;25.40;99.90;;;;;;5032265;28;20547;-57
2023/09/06 11:01:17;;;;;;;8.02;4.70;;;25.40;99.90;;;;;;5027172;28;20623;-56
2023/09/06 11:03:58;;;;;;;6.40;4.22;;;25.50;99.90;;;;;;5029507;28;20041;-56
2023/09/06 11:06:24;;;;;;;8.98;5.05;;;25.50;99.90;;;;;;5028304;28;20041;-56
2023/09/06 11:08:50;;;;;;;9.73;4.68;;;25.50;99.90;;;;;;5031853;28;20048;-55
2023/09/06 11:11:15;;;;;;;9.60;4.35;;;25.50;99.90;;;;;;5028434;28;20037;-56
2023/09/06 11:13:44;;;;;;;7.40;4.22;;;25.60;99.90;;;;;;5032917;28;20534;-56
2023/09/06 11:16:14;;;;;;;6.63;3.95;;;25.60;99.90;;;;;;5037601;28;20037;-56
2023/09/06 11:18:44;;;;;;;9.30;4.45;;;25.60;99.90;;;;;;5037211;28;20046;-56
2023/09/06 11:21:10;;;;;;;8.88;4.43;;;25.70;99.90;;;;;;5023111;28;20493;-55
2023/09/06 11:23:47;;;;;;;9.18;4.72;;;25.70;99.90;;;;;;5026695;28;20025;-55
2023/09/06 11:26:12;;;;;;;8.48;4.60;;;25.70;99.90;;;;;;5023462;28;20040;-57
2023/09/06 11:28:40;;;;;;;7.97;4.35;;;25.80;99.90;;;;;;5017922;28;20393;-58
2023/09/06 11:31:33;;;;;;;7.80;4.00;;;25.70;97.70;;;;;;5021340;28;20545;-56
2023/09/06 11:34:04;;;;;;;7.65;4.10;;;25.80;94.60;;;;;;5020623;28;20053;-57
2023/09/06 11:36:36;;;;;;;10.50;4.15;;;25.80;95.90;;;;;;5021553;28;20048;-56
2023/09/06 11:39:28;;;;;;;6.80;4.32;;;25.90;95.10;;;;;;5032239;28;20076;-55
2023/09/06 11:41:52;;;;;;;7.55;4.07;;;25.90;96.20;;;;;;5023558;28;20095;-56
2023/09/06 11:44:19;;;;;;;12.32;4.53;;;25.90;95.80;;;;;;5029143;28;20553;-56
2023/09/06 11:46:48;;;;;;;11.13;4.30;;;25.90;93.70;;;;;;5026994;28;20083;-56
2023/09/06 11:49:15;;;;;;;9.98;4.60;;;25.90;96.20;;;;;;5029074;28;20032;-57
2023/09/06 11:51:41;;;;;;;8.15;4.45;;;25.90;92.80;;;;;;5023203;28;20038;-56
2023/09/06 11:54:09;;;;;;;8.13;4.30;;;25.90;97.30;;;;;;5023749;28;20057;-57
2023/09/06 11:56:39;;;;;;;11.35;4.63;;;26.00;96.30;;;;;;5027386;28;20041;-56
2023/09/06 11:59:12;;;;;;;6.65;4.60;;;25.90;95.20;;;;;;5026699;28;20137;-56
2023/09/06 12:01:43;;;;;;;9.27;4.55;;;26.00;93.30;;;;;;5022772;28;20055;-57
2023/09/06 12:04:15;;;;;;;9.80;4.30;;;26.00;94.30;;;;;;5021705;28;20591;-58
2023/09/06 12:06:41;;;;;;;11.68;4.25;;;26.00;92.00;;;;;;5025840;28;20041;-57
2023/09/06 12:09:12;;;;;;;9.68;4.60;;;26.00;93.50;;;;;;5030212;28;20120;-57
2023/09/06 12:11:38;;;;;;;9.85;4.55;;;26.10;94.10;;;;;;5025443;28;20124;-57
2023/09/06 12:14:04;;;;;;;8.27;4.43;;;26.20;92.10;;;;;;5031035;28;20107;-58
2023/09/06 12:16:31;;;;;;;8.18;4.25;;;26.20;92.30;;;;;;5037892;28;20049;-57
2023/09/06 12:18:56;;;;;;;8.05;4.15;;;26.20;93.70;;;;;;5028475;28;20069;-56
2023/09/06 12:21:22;;;;;;;9.15;4.15;;;26.20;91.80;;;;;;5030684;28;20376;-58
2023/09/06 12:23:48;;;;;;;8.35;3.83;;;26.30;91.60;;;;;;5027405;28;20041;-56
2023/09/06 12:26:16;;;;;;;7.57;3.90;;;26.20;92.10;;;;;;5030674;28;20098;-57
2023/09/06 12:28:42;;;;;;;8.38;4.03;;;26.20;90.40;;;;;;5026112;28;20044;-57
2023/09/06 12:31:07;;;;;;;7.22;3.55;;;26.20;92.00;;;;;;5026372;28;20406;-57
2023/09/06 12:33:33;;;;;;;7.15;3.90;;;26.20;88.80;;;;;;5029571;28;20037;-58
2023/09/06 12:36:00;;;;;;;10.43;4.30;;;26.30;86.70;;;;;;5031756;28;20033;-57
2023/09/06 12:38:27;;;;;;;8.35;3.95;;;26.40;85.40;;;;;;5018167;28;20038;-57
2023/09/06 12:40:53;;;;;;;6.90;3.85;;;26.40;88.70;;;;;;5013925;28;20072;-57
2023/09/06 12:43:20;;;;;;;10.13;3.92;;;26.30;87.90;;;;;;5004265;28;20133;-58
2023/09/06 12:45:47;;;;;;;5.68;3.63;;;26.20;89.30;;;;;;5002973;28;20182;-58